createdAt,value
2023-10-26T00:00:16.384Z,39.29
2023-10-26T00:00:46.385Z,39.27
2023-10-26T00:01:16.529Z,39.26
2023-10-26T00:01:46.529Z,39.27
2023-10-26T00:02:16.657Z,39.31
2023-10-26T00:02:46.847Z,39.28
2023-10-26T00:03:16.933Z,39.28
2023-10-26T00:03:47.153Z,39.25
2023-10-26T00:04:17.075Z,39.26
2023-10-26T00:04:47.182Z,39.26
2023-10-26T00:05:17.092Z,39.27
2023-10-26T00:05:47.051Z,39.24
2023-10-26T00:06:17.172Z,39.27
2023-10-26T00:06:47.151Z,39.24
2023-10-26T00:07:17.240Z,39.25
2023-10-26T00:07:47.362Z,39.25
2023-10-26T00:08:17.429Z,39.29
2023-10-26T00:08:47.574Z,39.27
2023-10-26T00:09:17.550Z,39.29
2023-10-26T00:09:47.646Z,39.26
2023-10-26T00:10:17.729Z,39.29
2023-10-26T00:10:47.815Z,39.21
2023-10-26T00:11:17.890Z,39.26
2023-10-26T00:11:48.036Z,39.23
2023-10-26T00:12:18.066Z,39.26
2023-10-26T00:12:48.010Z,39.29
2023-10-26T00:13:18.132Z,39.21
2023-10-26T00:13:48.129Z,39.25
2023-10-26T00:14:48.239Z,39.26
2023-10-26T00:15:18.258Z,39.28
2023-10-26T00:15:48.307Z,39.27
2023-10-26T00:16:18.423Z,39.30
2023-10-26T00:16:48.471Z,39.25
2023-10-26T00:17:18.444Z,39.31
2023-10-26T00:17:48.642Z,39.29
2023-10-26T00:18:18.771Z,39.26
2023-10-26T00:18:48.790Z,39.26
2023-10-26T00:19:18.709Z,39.26
2023-10-26T00:19:48.735Z,39.26
2023-10-26T00:20:18.719Z,39.33
2023-10-26T00:21:18.915Z,39.29
2023-10-26T00:21:48.833Z,39.26
2023-10-26T00:22:18.948Z,39.29
2023-10-26T00:22:48.963Z,39.32
2023-10-26T00:23:18.966Z,39.26
2023-10-26T00:24:19.074Z,39.32
2023-10-26T00:24:49.093Z,39.29
2023-10-26T00:25:19.095Z,39.23
2023-10-26T00:25:49.212Z,39.30
2023-10-26T00:26:19.212Z,39.33
2023-10-26T00:27:19.345Z,39.30
2023-10-26T00:27:49.404Z,39.32
2023-10-26T00:28:19.392Z,39.32
2023-10-26T00:29:19.464Z,39.34
2023-10-26T00:29:49.470Z,39.30
2023-10-26T00:30:19.526Z,39.27
2023-10-26T00:30:49.515Z,39.33
2023-10-26T00:31:19.507Z,39.32
2023-10-26T00:32:19.615Z,39.30
2023-10-26T00:32:49.663Z,39.29
2023-10-26T00:33:19.891Z,39.29
2023-10-26T00:33:49.851Z,39.29
2023-10-26T00:34:19.777Z,39.31
2023-10-26T00:34:49.753Z,39.33
2023-10-26T00:35:19.876Z,39.29
2023-10-26T00:35:49.946Z,39.27
2023-10-26T00:36:19.929Z,39.31
2023-10-26T00:36:49.943Z,39.32
2023-10-26T00:37:19.945Z,39.27
2023-10-26T00:37:49.939Z,39.30
2023-10-26T00:38:20.067Z,39.31
2023-10-26T00:38:50.078Z,39.31
2023-10-26T00:39:20.144Z,39.30
2023-10-26T00:39:50.118Z,39.31
2023-10-26T00:40:20.233Z,39.27
2023-10-26T00:40:50.230Z,39.33
2023-10-26T00:41:20.253Z,39.34
2023-10-26T00:41:50.281Z,39.32
2023-10-26T00:42:20.353Z,39.30
2023-10-26T00:42:50.331Z,39.32
2023-10-26T00:43:20.331Z,39.29
2023-10-26T00:43:50.332Z,39.30
2023-10-26T00:44:20.347Z,39.33
2023-10-26T00:44:50.400Z,39.27
2023-10-26T00:45:20.454Z,39.30
2023-10-26T00:45:50.466Z,39.27
2023-10-26T00:46:20.484Z,39.34
2023-10-26T00:46:50.492Z,39.31
2023-10-26T00:47:50.678Z,39.30
2023-10-26T00:48:20.740Z,39.28
2023-10-26T00:48:50.928Z,39.26
2023-10-26T00:49:20.839Z,39.29
2023-10-26T00:49:50.738Z,39.28
2023-10-26T00:50:50.917Z,39.29
2023-10-26T00:51:20.866Z,39.29
2023-10-26T00:51:50.898Z,39.27
2023-10-26T00:52:21.088Z,39.26
2023-10-26T00:52:51.053Z,39.29
2023-10-26T00:53:21.331Z,39.30
2023-10-26T00:53:51.240Z,39.23
2023-10-26T00:54:21.307Z,39.24
2023-10-26T00:54:51.351Z,39.30
2023-10-26T00:55:21.357Z,39.29
2023-10-26T00:56:21.448Z,39.30
2023-10-26T00:56:51.489Z,39.27
2023-10-26T00:57:21.527Z,39.30
2023-10-26T00:57:51.522Z,39.27
2023-10-26T00:58:21.517Z,39.30
2023-10-26T00:58:51.669Z,39.27
2023-10-26T00:59:21.642Z,39.24
2023-10-26T00:59:51.695Z,39.29
2023-10-26T01:00:21.767Z,39.27
2023-10-26T01:00:51.782Z,39.23
2023-10-26T01:01:21.770Z,39.29
2023-10-26T01:01:51.892Z,39.29
2023-10-26T01:02:22.014Z,39.22
2023-10-26T01:02:52.091Z,39.26
2023-10-26T01:03:22.087Z,39.27
2023-10-26T01:03:52.044Z,39.29
2023-10-26T01:04:22.148Z,39.27
2023-10-26T01:04:52.250Z,39.26
2023-10-26T01:05:22.329Z,39.23
2023-10-26T01:05:52.456Z,39.26
2023-10-26T01:06:22.458Z,39.27
2023-10-26T01:06:52.515Z,39.27
2023-10-26T01:07:22.601Z,39.26
2023-10-26T01:07:52.711Z,39.20
2023-10-26T01:08:22.795Z,39.27
2023-10-26T01:08:52.886Z,39.26
2023-10-26T01:09:23.011Z,39.24
2023-10-26T01:09:52.961Z,39.24
2023-10-26T01:10:23.039Z,39.23
2023-10-26T01:10:53.140Z,39.24
2023-10-26T01:11:23.205Z,39.23
2023-10-26T01:11:53.354Z,39.27
2023-10-26T01:12:23.391Z,39.24
2023-10-26T01:12:53.399Z,39.23
2023-10-26T01:13:23.503Z,39.20
2023-10-26T01:13:53.518Z,39.28
2023-10-26T01:14:23.536Z,39.24
2023-10-26T01:14:53.544Z,39.23
2023-10-26T01:15:23.575Z,39.23
2023-10-26T01:15:53.561Z,39.26
2023-10-26T01:16:23.745Z,39.23
2023-10-26T01:16:53.710Z,39.22
2023-10-26T01:17:23.846Z,39.22
2023-10-26T01:17:53.909Z,39.23
2023-10-26T01:18:24.023Z,39.24
2023-10-26T01:18:54.011Z,39.24
2023-10-26T01:19:23.951Z,39.24
2023-10-26T01:19:53.960Z,39.23
2023-10-26T01:20:24.050Z,39.24
2023-10-26T01:20:54.213Z,39.24
2023-10-26T01:21:24.298Z,39.20
2023-10-26T01:21:54.309Z,39.23
2023-10-26T01:22:24.349Z,39.19
2023-10-26T01:22:54.343Z,39.22
2023-10-26T01:23:24.364Z,39.22
2023-10-26T01:23:54.387Z,39.23
2023-10-26T01:24:24.413Z,39.20
2023-10-26T01:24:54.430Z,39.22
2023-10-26T01:25:24.555Z,39.26
2023-10-26T01:25:54.543Z,39.22
2023-10-26T01:26:54.624Z,39.22
2023-10-26T01:27:24.774Z,39.22
2023-10-26T01:27:54.773Z,39.19
2023-10-26T01:28:24.963Z,39.22
2023-10-26T01:28:54.836Z,39.22
2023-10-26T01:29:24.832Z,39.23
2023-10-26T01:30:24.934Z,39.24
2023-10-26T01:30:54.958Z,39.16
2023-10-26T01:31:24.951Z,39.16
2023-10-26T01:31:55.067Z,39.25
2023-10-26T01:32:25.210Z,39.20
2023-10-26T01:32:55.281Z,39.20
2023-10-26T01:33:25.417Z,39.15
2023-10-26T01:33:55.459Z,39.20
2023-10-26T01:34:25.457Z,39.20
2023-10-26T01:35:25.594Z,39.19
2023-10-26T01:35:55.639Z,39.24
2023-10-26T01:36:25.691Z,39.20
2023-10-26T01:36:55.718Z,39.20
2023-10-26T01:37:25.710Z,39.17
2023-10-26T01:37:55.706Z,39.19
2023-10-26T01:38:55.804Z,39.24
2023-10-26T01:39:25.929Z,39.23
2023-10-26T01:39:55.906Z,39.19
2023-10-26T01:40:26.027Z,39.20
2023-10-26T01:40:56.168Z,39.22
2023-10-26T01:41:26.264Z,39.22
2023-10-26T01:41:56.322Z,39.23
2023-10-26T01:42:26.508Z,39.22
2023-10-26T01:42:56.403Z,39.23
2023-10-26T01:43:56.473Z,39.13
2023-10-26T01:44:26.592Z,39.15
2023-10-26T01:44:56.632Z,39.16
2023-10-26T01:45:26.663Z,39.17
2023-10-26T01:45:56.720Z,39.27
2023-10-26T01:46:26.728Z,39.20
2023-10-26T01:46:56.736Z,39.13
2023-10-26T01:47:26.792Z,39.22
2023-10-26T01:47:56.866Z,39.20
2023-10-26T01:48:26.938Z,39.19
2023-10-26T01:48:57.006Z,39.23
2023-10-26T01:49:27.028Z,39.24
2023-10-26T01:49:56.994Z,39.20
2023-10-26T01:50:27.113Z,39.20
2023-10-26T01:50:57.273Z,39.17
2023-10-26T01:51:27.332Z,39.22
2023-10-26T01:51:57.348Z,39.17
2023-10-26T01:52:27.355Z,39.20
2023-10-26T01:53:27.433Z,39.22
2023-10-26T01:53:57.463Z,39.22
2023-10-26T01:54:27.559Z,39.21
2023-10-26T01:54:57.437Z,39.22
2023-10-26T01:55:27.451Z,39.24
2023-10-26T01:55:57.464Z,39.23
2023-10-26T01:56:27.464Z,39.22
2023-10-26T01:57:27.617Z,39.23
2023-10-26T01:57:57.641Z,39.23
2023-10-26T01:58:27.633Z,39.23
2023-10-26T01:58:57.770Z,39.23
2023-10-26T01:59:27.881Z,39.20
2023-10-26T01:59:57.909Z,39.22
2023-10-26T02:00:27.937Z,39.16
2023-10-26T02:00:58.004Z,39.20
2023-10-26T02:01:27.992Z,39.19
2023-10-26T02:01:58.110Z,39.22
2023-10-26T02:02:28.192Z,39.23
2023-10-26T02:02:58.249Z,39.24
2023-10-26T02:03:28.331Z,39.17
2023-10-26T02:03:58.326Z,39.19
2023-10-26T02:04:28.415Z,39.23
2023-10-26T02:04:58.760Z,39.25
2023-10-26T02:05:28.667Z,39.24
2023-10-26T02:05:58.771Z,39.25
2023-10-26T02:06:28.854Z,39.21
2023-10-26T02:06:58.733Z,39.21
2023-10-26T02:07:28.833Z,39.24
2023-10-26T02:07:58.900Z,39.22
2023-10-26T02:08:28.984Z,39.25
2023-10-26T02:08:59.099Z,39.27
2023-10-26T02:09:29.073Z,39.23
2023-10-26T02:09:59.182Z,39.21
2023-10-26T02:10:29.256Z,39.20
2023-10-26T02:10:59.345Z,39.20
2023-10-26T02:11:29.416Z,39.23
2023-10-26T02:11:59.512Z,39.26
2023-10-26T02:12:29.584Z,39.23
2023-10-26T02:12:59.668Z,39.23
2023-10-26T02:13:29.743Z,39.27
2023-10-26T02:13:59.874Z,39.26
2023-10-26T02:14:29.985Z,39.25
2023-10-26T02:15:00.162Z,39.24
2023-10-26T02:15:30.202Z,39.28
2023-10-26T02:16:00.221Z,39.25
2023-10-26T02:16:30.333Z,39.27
2023-10-26T02:17:00.454Z,39.21
2023-10-26T02:17:30.509Z,39.22
2023-10-26T02:18:00.591Z,39.27
2023-10-26T02:18:30.627Z,39.25
2023-10-26T02:19:00.848Z,39.22
2023-10-26T02:19:30.803Z,39.29
2023-10-26T02:20:00.828Z,39.25
2023-10-26T02:20:30.803Z,39.25
2023-10-26T02:21:00.961Z,39.21
2023-10-26T02:21:30.991Z,39.22
2023-10-26T02:22:01.098Z,39.25
2023-10-26T02:22:31.214Z,39.22
2023-10-26T02:23:01.341Z,39.21
2023-10-26T02:23:31.476Z,39.20
2023-10-26T02:24:01.506Z,39.24
2023-10-26T02:25:01.563Z,39.22
2023-10-26T02:25:31.556Z,39.24
2023-10-26T02:26:01.683Z,39.22
2023-10-26T02:26:31.678Z,39.24
2023-10-26T02:27:01.758Z,39.22
2023-10-26T02:27:31.775Z,39.22
2023-10-26T02:28:01.888Z,39.22
2023-10-26T02:28:31.906Z,39.22
2023-10-26T02:29:01.893Z,39.21
2023-10-26T02:29:32.003Z,39.21
2023-10-26T02:30:02.227Z,39.26
2023-10-26T02:30:32.217Z,39.21
2023-10-26T02:31:02.227Z,39.21
2023-10-26T02:31:32.225Z,39.20
2023-10-26T02:32:02.233Z,39.21
2023-10-26T02:33:02.399Z,39.22
2023-10-26T02:33:32.315Z,39.29
2023-10-26T02:34:02.441Z,39.20
2023-10-26T02:34:32.457Z,39.22
2023-10-26T02:35:02.482Z,39.22
2023-10-26T02:35:32.492Z,39.17
2023-10-26T02:36:02.612Z,39.26
2023-10-26T02:36:32.693Z,39.28
2023-10-26T02:37:02.672Z,39.24
2023-10-26T02:37:32.804Z,39.25
2023-10-26T02:38:02.981Z,39.23
2023-10-26T02:38:32.848Z,39.24
2023-10-26T02:39:33.082Z,39.21
2023-10-26T02:40:03.100Z,39.22
2023-10-26T02:40:33.082Z,39.23
2023-10-26T02:41:03.215Z,39.21
2023-10-26T02:41:33.206Z,39.21
2023-10-26T02:42:03.390Z,39.21
2023-10-26T02:42:33.394Z,39.21
2023-10-26T02:43:03.389Z,39.18
2023-10-26T02:44:03.479Z,39.20
2023-10-26T02:44:33.616Z,39.24
2023-10-26T02:45:03.704Z,39.20
2023-10-26T02:45:33.710Z,39.20
2023-10-26T02:46:03.824Z,39.18
2023-10-26T02:46:33.813Z,39.18
2023-10-26T02:47:34.009Z,39.22
2023-10-26T02:48:04.230Z,39.17
2023-10-26T02:48:34.009Z,39.22
2023-10-26T02:49:04.016Z,39.22
2023-10-26T02:49:34.026Z,39.25
2023-10-26T02:50:04.109Z,39.21
2023-10-26T02:50:35.762Z,39.26
2023-10-26T02:51:04.146Z,39.22
2023-10-26T02:51:34.145Z,39.21
2023-10-26T02:52:04.154Z,39.22
2023-10-26T02:53:04.234Z,39.20
2023-10-26T02:53:34.343Z,39.15
2023-10-26T02:54:04.520Z,39.11
2023-10-26T02:54:34.534Z,39.11
2023-10-26T02:55:04.541Z,39.04
2023-10-26T02:56:04.639Z,39.07
2023-10-26T02:56:34.658Z,39.06
2023-10-26T02:57:34.728Z,39.00
2023-10-26T02:58:04.725Z,38.96
2023-10-26T02:59:04.811Z,38.91
2023-10-26T02:59:34.937Z,38.92
2023-10-26T03:00:05.077Z,38.90
2023-10-26T03:00:35.078Z,38.90
2023-10-26T03:01:05.120Z,38.86
2023-10-26T03:01:35.095Z,38.84
2023-10-26T03:02:05.219Z,38.84
2023-10-26T03:02:35.453Z,38.85
2023-10-26T03:03:05.412Z,38.79
2023-10-26T03:03:35.493Z,38.83
2023-10-26T03:04:05.521Z,38.78
2023-10-26T03:04:35.483Z,38.75
2023-10-26T03:05:05.602Z,38.76
2023-10-26T03:05:35.607Z,38.74
2023-10-26T03:06:05.631Z,38.74
2023-10-26T03:06:35.630Z,38.71
2023-10-26T03:07:05.609Z,38.70
2023-10-26T03:08:05.677Z,38.71
2023-10-26T03:08:35.673Z,38.63
2023-10-26T03:09:35.848Z,38.64
2023-10-26T03:10:05.768Z,38.64
2023-10-26T03:10:35.772Z,38.62
2023-10-26T03:11:05.889Z,38.59
2023-10-26T03:11:35.885Z,38.58
2023-10-26T03:12:06.051Z,38.64
2023-10-26T03:12:36.126Z,38.61
2023-10-26T03:13:06.273Z,38.56
2023-10-26T03:13:36.261Z,38.60
2023-10-26T03:14:06.298Z,38.57
2023-10-26T03:14:36.324Z,38.57
2023-10-26T03:15:06.380Z,38.59
2023-10-26T03:15:36.422Z,38.55
2023-10-26T03:16:06.441Z,38.55
2023-10-26T03:16:37.530Z,38.52
2023-10-26T03:17:06.569Z,38.53
2023-10-26T03:17:36.657Z,38.56
2023-10-26T03:18:06.804Z,38.52
2023-10-26T03:18:36.803Z,38.49
2023-10-26T03:19:06.847Z,38.46
2023-10-26T03:19:36.894Z,38.51
2023-10-26T03:20:06.925Z,38.45
2023-10-26T03:20:36.967Z,38.48
2023-10-26T03:21:07.076Z,38.47
2023-10-26T03:21:37.141Z,38.40
2023-10-26T03:22:07.201Z,38.46
2023-10-26T03:22:37.214Z,38.42
2023-10-26T03:23:07.241Z,38.45
2023-10-26T03:23:37.281Z,38.48
2023-10-26T03:24:07.334Z,38.37
2023-10-26T03:24:37.373Z,38.42
2023-10-26T03:25:07.443Z,38.45
2023-10-26T03:25:37.504Z,38.43
2023-10-26T03:26:07.529Z,38.45
2023-10-26T03:26:37.564Z,38.41
2023-10-26T03:27:07.617Z,38.39
2023-10-26T03:27:37.638Z,38.37
2023-10-26T03:28:07.674Z,38.40
2023-10-26T03:28:37.747Z,38.40
2023-10-26T03:29:07.787Z,38.40
2023-10-26T03:29:37.829Z,38.40
2023-10-26T03:30:07.865Z,38.39
2023-10-26T03:30:37.889Z,38.44
2023-10-26T03:31:07.926Z,38.39
2023-10-26T03:31:37.959Z,38.37
2023-10-26T03:32:07.988Z,38.37
2023-10-26T03:32:38.033Z,38.37
2023-10-26T03:33:08.153Z,38.48
2023-10-26T03:33:38.135Z,38.41
2023-10-26T03:34:08.169Z,38.45
2023-10-26T03:34:38.196Z,38.44
2023-10-26T03:35:08.227Z,38.42
2023-10-26T03:35:38.262Z,38.41
2023-10-26T03:36:08.306Z,38.46
2023-10-26T03:36:38.449Z,38.41
2023-10-26T03:37:08.481Z,38.42
2023-10-26T03:37:38.572Z,38.42
2023-10-26T03:38:08.600Z,38.45
2023-10-26T03:38:38.634Z,38.45
2023-10-26T03:39:08.728Z,38.46
2023-10-26T03:39:38.764Z,38.42
2023-10-26T03:40:08.797Z,38.49
2023-10-26T03:40:38.826Z,38.46
2023-10-26T03:41:08.863Z,38.50
2023-10-26T03:41:38.895Z,38.50
2023-10-26T03:42:08.966Z,38.49
2023-10-26T03:42:39.014Z,38.45
2023-10-26T03:43:09.051Z,38.46
2023-10-26T03:43:39.081Z,38.45
2023-10-26T03:44:09.129Z,38.43
2023-10-26T03:44:39.161Z,38.46
2023-10-26T03:45:09.234Z,38.46
2023-10-26T03:45:39.283Z,38.48
2023-10-26T03:46:09.321Z,38.45
2023-10-26T03:46:39.358Z,38.43
2023-10-26T03:47:09.419Z,38.48
2023-10-26T03:47:39.554Z,38.47
2023-10-26T03:48:09.568Z,38.48
2023-10-26T03:48:39.539Z,38.45
2023-10-26T03:49:09.581Z,38.50
2023-10-26T03:49:39.612Z,38.43
2023-10-26T03:50:09.641Z,38.46
2023-10-26T03:50:39.677Z,38.42
2023-10-26T03:51:09.749Z,38.42
2023-10-26T03:51:39.768Z,38.46
2023-10-26T03:52:09.842Z,38.42
2023-10-26T03:52:39.874Z,38.41
2023-10-26T03:53:09.965Z,38.46
2023-10-26T03:53:40.030Z,38.43
2023-10-26T03:54:10.057Z,38.46
2023-10-26T03:54:40.098Z,38.43
2023-10-26T03:55:10.128Z,38.40
2023-10-26T03:55:40.160Z,38.47
2023-10-26T03:56:10.203Z,38.43
2023-10-26T03:56:40.228Z,38.46
2023-10-26T03:57:10.293Z,38.49
2023-10-26T03:57:40.306Z,38.49
2023-10-26T03:58:10.342Z,38.46
2023-10-26T03:58:40.371Z,38.47
2023-10-26T03:59:10.408Z,38.51
2023-10-26T03:59:40.465Z,38.53
2023-10-26T04:00:10.488Z,38.51
2023-10-26T04:00:40.511Z,38.59
2023-10-26T04:01:10.556Z,38.54
2023-10-26T04:01:40.609Z,38.63
2023-10-26T04:02:10.665Z,38.55
2023-10-26T04:02:40.763Z,38.56
2023-10-26T04:03:10.968Z,38.58
2023-10-26T04:03:40.905Z,38.59
2023-10-26T04:04:10.893Z,38.60
2023-10-26T04:04:40.899Z,38.60
2023-10-26T04:05:40.955Z,38.63
2023-10-26T04:06:11.009Z,38.66
2023-10-26T04:06:40.992Z,38.63
2023-10-26T04:07:10.989Z,38.60
2023-10-26T04:07:41.110Z,38.60
2023-10-26T04:08:11.101Z,38.57
2023-10-26T04:08:41.242Z,38.66
2023-10-26T04:09:11.263Z,38.59
2023-10-26T04:09:41.270Z,38.62
2023-10-26T04:10:11.256Z,38.60
2023-10-26T04:11:11.343Z,38.59
2023-10-26T04:11:41.340Z,38.60
2023-10-26T04:12:41.425Z,38.56
2023-10-26T04:13:11.421Z,38.54
2023-10-26T04:13:41.431Z,38.55
2023-10-26T04:14:11.458Z,38.55
2023-10-26T04:14:41.540Z,38.48
2023-10-26T04:15:11.619Z,38.50
2023-10-26T04:15:41.649Z,38.51
2023-10-26T04:16:11.692Z,38.52
2023-10-26T04:16:41.737Z,38.50
2023-10-26T04:17:11.769Z,38.51
2023-10-26T04:17:41.825Z,38.51
2023-10-26T04:18:12.022Z,38.47
2023-10-26T04:18:41.962Z,38.49
2023-10-26T04:19:11.987Z,38.47
2023-10-26T04:19:42.031Z,38.47
2023-10-26T04:20:12.084Z,38.44
2023-10-26T04:20:42.105Z,38.44
2023-10-26T04:21:12.159Z,38.44
2023-10-26T04:21:42.174Z,38.47
2023-10-26T04:22:12.201Z,38.40
2023-10-26T04:22:42.250Z,38.41
2023-10-26T04:23:12.263Z,38.45
2023-10-26T04:23:42.304Z,38.38
2023-10-26T04:24:12.432Z,38.54
2023-10-26T04:24:42.755Z,38.65
2023-10-26T04:25:12.453Z,38.63
2023-10-26T04:25:53.691Z,38.58
2023-10-26T04:26:12.528Z,38.58
2023-10-26T04:26:42.580Z,38.50
2023-10-26T04:27:12.627Z,38.57
2023-10-26T04:27:42.653Z,38.53
2023-10-26T04:28:12.688Z,38.47
2023-10-26T04:28:51.622Z,38.51
2023-10-26T04:29:12.801Z,38.53
2023-10-26T04:29:42.837Z,38.51
2023-10-26T04:30:12.940Z,38.49
2023-10-26T04:30:42.985Z,38.43
2023-10-26T04:31:13.027Z,38.45
2023-10-26T04:31:43.091Z,38.45
2023-10-26T04:32:13.100Z,38.38
2023-10-26T04:32:43.205Z,38.39
2023-10-26T04:33:13.268Z,38.41
2023-10-26T04:33:43.375Z,38.34
2023-10-26T04:34:13.509Z,38.35
2023-10-26T04:34:43.863Z,38.33
2023-10-26T04:35:13.552Z,38.31
2023-10-26T04:35:43.612Z,38.34
2023-10-26T04:36:13.683Z,38.33
2023-10-26T04:36:43.724Z,38.30
2023-10-26T04:37:13.759Z,38.29
2023-10-26T04:37:43.789Z,38.29
2023-10-26T04:38:13.820Z,38.30
2023-10-26T04:38:43.895Z,38.29
2023-10-26T04:39:13.922Z,38.27
2023-10-26T04:39:43.972Z,38.28
2023-10-26T04:40:13.987Z,38.28
2023-10-26T04:40:44.031Z,38.21
2023-10-26T04:41:14.061Z,38.24
2023-10-26T04:41:44.093Z,38.22
2023-10-26T04:42:14.355Z,38.18
2023-10-26T04:42:44.177Z,38.22
2023-10-26T04:43:14.223Z,38.26
2023-10-26T04:43:44.280Z,38.25
2023-10-26T04:44:14.299Z,38.28
2023-10-26T04:44:44.509Z,38.25
2023-10-26T04:45:14.495Z,38.25
2023-10-26T04:45:44.533Z,38.26
2023-10-26T04:46:14.578Z,38.23
2023-10-26T04:46:44.620Z,38.31
2023-10-26T04:47:14.642Z,38.27
2023-10-26T04:47:44.729Z,38.33
2023-10-26T04:48:14.815Z,38.31
2023-10-26T04:48:44.902Z,38.31
2023-10-26T04:49:14.938Z,38.32
2023-10-26T04:49:44.985Z,38.34
2023-10-26T04:50:15.022Z,38.36
2023-10-26T04:50:45.046Z,38.39
2023-10-26T04:51:15.123Z,38.42
2023-10-26T04:51:45.152Z,38.40
2023-10-26T04:52:15.183Z,38.39
2023-10-26T04:52:45.225Z,38.42
2023-10-26T04:53:15.258Z,38.47
2023-10-26T04:53:45.285Z,38.43
2023-10-26T04:54:15.340Z,38.44
2023-10-26T04:54:45.566Z,38.46
2023-10-26T04:55:15.422Z,38.50
2023-10-26T04:55:45.441Z,38.44
2023-10-26T04:56:15.470Z,38.49
2023-10-26T04:56:45.501Z,38.49
2023-10-26T04:57:15.592Z,38.49
2023-10-26T04:57:45.619Z,38.47
2023-10-26T04:58:15.647Z,38.49
2023-10-26T04:58:45.682Z,38.47
2023-10-26T04:59:15.722Z,38.58
2023-10-26T04:59:45.746Z,38.50
2023-10-26T05:00:15.790Z,38.53
2023-10-26T05:00:45.815Z,38.50
2023-10-26T05:01:15.880Z,38.54
2023-10-26T05:01:45.982Z,38.53
2023-10-26T05:02:15.919Z,38.59
2023-10-26T05:03:16.045Z,38.56
2023-10-26T05:03:46.101Z,38.52
2023-10-26T05:04:15.997Z,38.55
2023-10-26T05:04:46.109Z,38.59
2023-10-26T05:05:16.102Z,38.51
2023-10-26T05:05:46.269Z,38.54
2023-10-26T05:06:16.333Z,38.59
2023-10-26T05:06:46.426Z,38.52
2023-10-26T05:07:16.431Z,38.55
2023-10-26T05:07:46.558Z,38.57
2023-10-26T05:08:16.608Z,38.57
2023-10-26T05:08:46.728Z,38.59
2023-10-26T05:09:16.790Z,38.54
2023-10-26T05:09:46.799Z,38.64
2023-10-26T05:10:16.821Z,38.66
2023-10-26T05:11:16.882Z,38.63
2023-10-26T05:11:46.876Z,38.60
2023-10-26T05:12:46.946Z,38.60
2023-10-26T05:13:16.948Z,38.62
2023-10-26T05:13:46.970Z,38.63
2023-10-26T05:14:16.991Z,38.67
2023-10-26T05:14:47.051Z,38.63
2023-10-26T05:15:17.205Z,38.60
2023-10-26T05:15:47.145Z,38.67
2023-10-26T05:16:17.216Z,38.66
2023-10-26T05:16:47.241Z,38.67
2023-10-26T05:17:17.270Z,38.62
2023-10-26T05:17:47.315Z,38.63
2023-10-26T05:18:17.443Z,38.63
2023-10-26T05:18:47.525Z,38.64
2023-10-26T05:19:17.540Z,38.68
2023-10-26T05:19:47.574Z,38.67
2023-10-26T05:20:17.610Z,38.65
2023-10-26T05:20:47.648Z,38.67
2023-10-26T05:21:17.725Z,38.67
2023-10-26T05:21:47.758Z,38.66
2023-10-26T05:22:17.829Z,38.70
2023-10-26T05:22:47.865Z,38.66
2023-10-26T05:23:17.950Z,38.66
2023-10-26T05:23:47.979Z,38.67
2023-10-26T05:24:18.057Z,38.66
2023-10-26T05:24:48.119Z,38.64
2023-10-26T05:25:18.147Z,38.69
2023-10-26T05:25:48.211Z,38.61
2023-10-26T05:26:18.260Z,38.66
2023-10-26T05:26:48.326Z,38.68
2023-10-26T05:27:18.429Z,38.73
2023-10-26T05:27:48.538Z,38.73
2023-10-26T05:28:18.610Z,38.69
2023-10-26T05:28:48.696Z,38.71
2023-10-26T05:29:18.779Z,38.71
2023-10-26T05:29:48.879Z,38.75
2023-10-26T05:30:18.976Z,38.72
2023-10-26T05:30:48.973Z,38.73
2023-10-26T05:31:19.106Z,38.76
2023-10-26T05:31:49.064Z,38.72
2023-10-26T05:32:19.128Z,38.73
2023-10-26T05:32:49.239Z,38.71
2023-10-26T05:33:19.340Z,38.72
2023-10-26T05:33:49.404Z,38.76
2023-10-26T05:34:19.463Z,38.75
2023-10-26T05:34:49.568Z,38.77
2023-10-26T05:35:19.637Z,38.77
2023-10-26T05:35:49.713Z,38.79
2023-10-26T05:36:19.811Z,38.76
2023-10-26T05:36:49.877Z,38.78
2023-10-26T05:37:19.952Z,38.79
2023-10-26T05:37:50.018Z,38.82
2023-10-26T05:38:20.083Z,38.84
2023-10-26T05:38:50.143Z,38.78
2023-10-26T05:39:20.271Z,38.82
2023-10-26T05:39:50.255Z,38.80
2023-10-26T05:40:20.337Z,38.76
2023-10-26T05:40:50.407Z,38.77
2023-10-26T05:41:20.501Z,38.78
2023-10-26T05:41:50.572Z,38.81
2023-10-26T05:42:20.667Z,38.84
2023-10-26T05:42:50.763Z,38.84
2023-10-26T05:43:20.846Z,38.85
2023-10-26T05:43:50.928Z,38.94
2023-10-26T05:44:20.984Z,38.81
2023-10-26T05:44:51.036Z,38.80
2023-10-26T05:45:21.146Z,38.87
2023-10-26T05:45:51.222Z,38.84
2023-10-26T05:46:21.323Z,38.87
2023-10-26T05:46:51.381Z,38.91
2023-10-26T05:47:22.277Z,38.92
2023-10-26T05:47:51.599Z,38.89
2023-10-26T05:48:21.676Z,38.91
2023-10-26T05:48:51.606Z,38.93
2023-10-26T05:49:21.676Z,38.85
2023-10-26T05:49:51.755Z,38.86
2023-10-26T05:50:21.840Z,38.88
2023-10-26T05:50:51.906Z,38.93
2023-10-26T05:51:22.057Z,38.89
2023-10-26T05:51:51.988Z,38.88
2023-10-26T05:52:22.088Z,38.91
2023-10-26T05:52:52.168Z,38.92
2023-10-26T05:53:22.316Z,38.95
2023-10-26T05:53:52.289Z,38.89
2023-10-26T05:54:22.410Z,38.89
2023-10-26T05:54:52.493Z,38.88
2023-10-26T05:55:22.560Z,38.95
2023-10-26T05:55:52.621Z,38.92
2023-10-26T05:56:22.674Z,38.96
2023-10-26T05:56:52.808Z,38.91
2023-10-26T05:57:22.916Z,38.89
2023-10-26T05:57:52.938Z,38.93
2023-10-26T05:58:22.898Z,38.93
2023-10-26T05:58:52.976Z,38.92
2023-10-26T05:59:23.061Z,38.95
2023-10-26T05:59:53.144Z,38.99
2023-10-26T06:00:23.253Z,38.97
2023-10-26T06:00:53.287Z,38.95
2023-10-26T06:01:23.375Z,38.89
2023-10-26T06:01:53.470Z,38.89
2023-10-26T06:02:24.039Z,38.90
2023-10-26T06:02:53.734Z,38.97
2023-10-26T06:03:23.736Z,38.93
2023-10-26T06:03:53.766Z,39.01
2023-10-26T06:04:23.801Z,39.07
2023-10-26T06:04:53.844Z,39.07
2023-10-26T06:05:23.890Z,39.04
2023-10-26T06:05:53.938Z,38.98
2023-10-26T06:06:23.995Z,39.11
2023-10-26T06:06:54.093Z,39.01
2023-10-26T06:07:24.131Z,39.07
2023-10-26T06:07:54.152Z,39.14
2023-10-26T06:08:24.167Z,39.07
2023-10-26T06:08:54.213Z,39.05
2023-10-26T06:09:24.284Z,39.09
2023-10-26T06:09:54.331Z,39.02
2023-10-26T06:10:24.357Z,39.05
2023-10-26T06:10:54.401Z,39.04
2023-10-26T06:11:24.432Z,39.06
2023-10-26T06:11:54.482Z,39.15
2023-10-26T06:12:24.606Z,39.11
2023-10-26T06:12:54.523Z,39.10
2023-10-26T06:13:54.651Z,39.19
2023-10-26T06:14:24.689Z,39.24
2023-10-26T06:14:54.711Z,39.17
2023-10-26T06:15:24.883Z,39.20
2023-10-26T06:15:54.895Z,39.19
2023-10-26T06:16:24.974Z,39.26
2023-10-26T06:16:55.019Z,39.25
2023-10-26T06:17:25.063Z,39.24
2023-10-26T06:17:55.097Z,39.27
2023-10-26T06:18:25.185Z,39.28
2023-10-26T06:18:55.187Z,39.23
2023-10-26T06:19:25.218Z,39.28
2023-10-26T06:19:55.250Z,39.29
2023-10-26T06:20:25.294Z,39.25
2023-10-26T06:20:55.332Z,39.25
2023-10-26T06:21:25.421Z,39.32
2023-10-26T06:21:55.469Z,39.28
2023-10-26T06:22:25.498Z,39.21
2023-10-26T06:22:55.528Z,39.20
2023-10-26T06:23:25.564Z,39.21
2023-10-26T06:23:55.605Z,39.20
2023-10-26T06:24:25.702Z,39.26
2023-10-26T06:24:55.745Z,39.21
2023-10-26T06:25:25.772Z,39.21
2023-10-26T06:25:55.816Z,39.20
2023-10-26T06:26:25.884Z,39.23
2023-10-26T06:26:55.943Z,39.28
2023-10-26T06:27:26.029Z,39.31
2023-10-26T06:27:56.007Z,39.21
2023-10-26T06:28:26.020Z,39.20
2023-10-26T06:28:56.056Z,39.20
2023-10-26T06:29:26.085Z,39.24
2023-10-26T06:29:56.122Z,39.21
2023-10-26T06:30:26.225Z,39.25
2023-10-26T06:30:56.184Z,39.28
2023-10-26T06:31:26.264Z,39.24
2023-10-26T06:31:56.355Z,39.21
2023-10-26T06:32:26.359Z,39.20
2023-10-26T06:32:56.432Z,39.24
2023-10-26T06:33:26.501Z,39.22
2023-10-26T06:33:56.463Z,39.24
2023-10-26T06:34:26.529Z,39.22
2023-10-26T06:34:56.569Z,39.28
2023-10-26T06:35:26.634Z,39.21
2023-10-26T06:35:56.662Z,39.20
2023-10-26T06:36:26.763Z,39.18
2023-10-26T06:36:56.752Z,39.21
2023-10-26T06:37:26.803Z,39.23
2023-10-26T06:37:56.848Z,39.21
2023-10-26T06:38:26.868Z,39.17
2023-10-26T06:38:56.894Z,39.19
2023-10-26T06:39:26.988Z,39.22
2023-10-26T06:39:57.061Z,39.17
2023-10-26T06:40:27.099Z,39.17
2023-10-26T06:40:57.137Z,39.17
2023-10-26T06:41:27.169Z,39.14
2023-10-26T06:41:57.203Z,39.25
2023-10-26T06:42:27.277Z,39.20
2023-10-26T06:42:57.350Z,39.22
2023-10-26T06:43:27.413Z,39.21
2023-10-26T06:43:57.425Z,39.17